Time;durP1;ratioP1;P1;durP2;ratioP2;P2;SDS_P1;SDS_P2;PMS_P1;PMS_P2;Temp;Humidity;BMP_temperature;BMP_pressure;BME280_temperature;BME280_humidity;BME280_pressure;Samples;Min_cycle;Max_cycle;Signal;HPM_P1;HPM_P2
2023/03/17 00:04:37;;;;;;;32.13;14.37;;;;;;;-0.49;54.35;100808.28;30623539;28;97750;-64
2023/03/17 00:19:39;;;;;;;32.13;13.93;;;;;;;-0.60;54.64;100808.88;30622877;28;97506;-64
2023/03/17 00:34:39;;;;;;;34.58;15.30;;;;;;;-0.68;54.77;100798.84;30622655;28;96714;-64
2023/03/17 00:49:40;;;;;;;27.10;14.13;;;;;;;-0.76;55.64;100794.00;30620434;28;97421;-64
2023/03/17 01:04:41;;;;;;;28.02;13.25;;;;;;;-0.80;56.02;100763.69;30619082;28;96766;-64
2023/03/17 01:19:42;;;;;;;23.52;13.13;;;;;;;-0.87;56.26;100730.97;30617117;28;98542;-64
2023/03/17 01:34:42;;;;;;;31.83;13.35;;;;;;;-0.85;56.66;100721.25;30616831;28;96713;-64
2023/03/17 01:49:44;;;;;;;32.85;14.10;;;;;;;-0.70;57.26;100717.81;30614951;28;96994;-63
2023/03/17 02:04:44;;;;;;;33.88;14.20;;;;;;;-0.69;57.15;100714.25;30614151;28;96762;-61
2023/03/17 02:19:45;;;;;;;25.95;12.63;;;;;;;-0.92;57.28;100697.19;30611963;28;96720;-64
2023/03/17 02:34:46;;;;;;;24.30;11.05;;;;;;;-1.09;58.45;100676.38;30627535;28;97654;-61
2023/03/17 02:49:48;;;;;;;22.25;10.70;;;;;;;-1.31;59.25;100692.34;30632097;28;96783;-63
2023/03/17 03:04:49;;;;;;;15.93;7.20;;;;;;;-1.28;59.75;100692.19;30630517;28;97592;-61
2023/03/17 03:19:49;;;;;;;16.85;7.88;;;;;;;-1.33;60.05;100678.53;30628874;28;96707;-64
2023/03/17 03:34:50;;;;;;;22.38;7.82;;;;;;;-1.40;60.70;100678.84;30627091;28;96818;-63
2023/03/17 03:49:50;;;;;;;18.73;8.75;;;;;;;-1.43;60.71;100657.25;30625156;28;97011;-64
2023/03/17 04:04:50;;;;;;;28.77;9.02;;;;;;;-1.54;61.63;100637.75;30623424;28;97351;-62
2023/03/17 04:19:52;;;;;;;17.27;8.20;;;;;;;-1.57;61.45;100647.56;30622136;28;97365;-64
2023/03/17 04:34:53;;;;;;;24.05;8.73;;;;;;;-1.71;62.31;100641.28;30618644;28;97241;-61
2023/03/17 04:49:53;;;;;;;21.17;8.48;;;;;;;-1.75;61.96;100639.75;30616542;28;97800;-64
2023/03/17 05:04:53;;;;;;;15.80;7.38;;;;;;;-1.74;61.87;100635.34;30616638;28;96691;-61
2023/03/17 05:19:54;;;;;;;19.27;7.70;;;;;;;-1.61;62.24;100640.78;30613643;28;96611;-60
2023/03/17 05:34:56;;;;;;;20.42;10.73;;;;;;;-1.31;63.30;100627.00;30613060;28;96790;-62
2023/03/17 05:49:56;;;;;;;25.20;11.05;;;;;;;-0.83;62.71;100638.31;30611228;28;96692;-59
2023/03/17 06:04:56;;;;;;;24.92;11.95;;;;;;;0.03;62.32;100636.88;30605371;28;97129;-60
2023/03/17 06:19:57;;;;;;;21.33;10.88;;;;;;;0.91;61.02;100642.84;30598132;28;98243;-64
2023/03/17 06:34:57;;;;;;;43.53;15.05;;;;;;;1.65;59.65;100640.75;30607524;28;96924;-60
2023/03/17 06:49:57;;;;;;;18.92;10.43;;;;;;;2.34;58.75;100627.34;30605956;28;96656;-59
2023/03/17 07:04:59;;;;;;;29.73;14.52;;;;;;;3.19;56.56;100615.25;30606134;28;96710;-62
2023/03/17 07:19:59;;;;;;;20.27;10.07;;;;;;;3.92;53.61;100620.41;30620053;28;96739;-62
2023/03/17 07:35:00;;;;;;;20.85;12.50;;;;;;;4.29;52.97;100623.72;30625326;28;96743;-62
2023/03/17 07:50:00;;;;;;;18.65;8.75;;;;;;;5.19;51.86;100619.28;30621404;28;97519;-60
2023/03/17 08:05:02;;;;;;;20.27;10.25;;;;;;;5.85;48.14;100612.97;30618781;28;96898;-62
2023/03/17 08:20:03;;;;;;;20.42;9.98;;;;;;;6.69;47.12;100596.16;30620138;28;96815;-64
2023/03/17 08:35:05;;;;;;;18.70;9.90;;;;;;;8.04;45.55;100576.91;30616795;28;96748;-60
2023/03/17 08:50:10;;;;;;;17.43;8.27;;;;;;;9.35;42.11;100553.66;30617498;28;96716;-60
2023/03/17 09:05:12;;;;;;;12.13;6.60;;;;;;;10.48;38.29;100580.34;30614100;28;96722;-60
2023/03/17 09:20:13;;;;;;;12.77;7.00;;;;;;;16.91;29.98;100571.22;30613119;28;97310;-63
2023/03/17 09:35:13;;;;;;;11.65;5.78;;;;;;;22.22;22.61;100581.19;30613233;28;96782;-63
2023/03/17 09:50:34;;;;;;;11.50;5.10;;;;;;;23.99;18.52;100563.25;30611638;28;96749;-64
2023/03/17 10:05:35;;;;;;;10.83;4.50;;;;;;;27.29;16.38;100552.00;30605015;28;97436;-65
2023/03/17 10:20:42;;;;;;;10.73;4.05;;;;;;;22.91;17.60;100550.56;30601445;28;96790;-63
2023/03/17 10:35:43;;;;;;;9.70;4.03;;;;;;;25.75;15.17;100540.53;30599294;28;97260;-62
2023/03/17 10:50:45;;;;;;;5.85;3.35;;;;;;;31.49;11.67;100538.88;30607125;28;96866;-64
2023/03/17 11:06:19;;;;;;;7.17;3.33;;;;;;;33.09;10.76;100496.94;30618311;28;97099;-64
2023/03/17 11:21:30;;;;;;;5.23;3.33;;;;;;;30.79;10.38;100451.75;30610970;28;97678;-65
2023/03/17 11:36:52;;;;;;;8.80;3.23;;;;;;;30.57;10.79;100428.44;30615155;28;97403;-64
2023/03/17 11:52:07;;;;;;;11.13;3.60;;;;;;;28.92;11.27;100397.44;30611654;28;97301;-65
2023/03/17 12:07:20;;;;;;;4.97;2.70;;;;;;;28.62;11.86;100393.84;30609653;28;97039;-64
2023/03/17 12:22:31;;;;;;;6.93;3.00;;;;;;;27.29;12.23;100366.03;30610389;28;97322;-61
2023/03/17 12:37:32;;;;;;;7.87;3.10;;;;;;;29.84;11.27;100329.75;30608002;28;97871;-61
2023/03/17 12:52:41;;;;;;;5.13;2.78;;;;;;;30.74;10.40;100337.16;30605290;28;98506;-64
2023/03/17 13:07:51;;;;;;;7.43;2.93;;;;;;;31.91;10.09;100315.03;30605568;28;98120;-61
2023/03/17 13:23:01;;;;;;;7.23;3.10;;;;;;;30.76;10.34;100320.38;30604392;28;97318;-62
2023/03/17 13:38:23;;;;;;;8.43;3.77;;;;;;;27.36;11.86;100291.94;30603370;28;97093;-62
2023/03/17 13:53:26;;;;;;;5.53;3.10;;;;;;;25.44;13.24;100311.28;30601464;28;97262;-63
2023/03/17 14:08:42;;;;;;;6.53;2.97;;;;;;;22.33;15.05;100304.63;30599064;28;97416;-59
2023/03/17 14:23:51;;;;;;;7.07;3.70;;;;;;;18.29;19.12;100267.78;30688000;28;100125;-60
2023/03/17 14:38:54;;;;;;;7.37;2.80;;;;;;;16.01;21.61;100246.06;30719846;28;97132;-59
2023/03/17 14:54:12;;;;;;;6.23;3.43;;;;;;;14.15;23.27;100239.47;30721524;28;97235;-58
2023/03/17 15:09:36;;;;;;;5.97;2.87;;;;;;;13.16;25.62;100225.63;30726931;28;96742;-64
2023/03/17 15:24:39;;;;;;;7.20;3.13;;;;;;;12.27;26.81;100201.53;30725162;28;96822;-60
2023/03/17 15:39:39;;;;;;;6.27;3.00;;;;;;;11.73;28.55;100200.59;30735049;28;97397;-62
2023/03/17 15:54:40;;;;;;;6.78;3.42;;;;;;;11.26;29.28;100198.84;30742476;28;96734;-59
2023/03/17 16:09:40;;;;;;;5.63;3.15;;;;;;;10.79;30.40;100200.56;30742707;28;96789;-65
2023/03/17 16:24:41;;;;;;;9.27;4.07;;;;;;;10.23;31.87;100187.97;30741076;28;97513;-65
2023/03/17 16:39:42;;;;;;;6.65;3.97;;;;;;;9.73;33.23;100191.63;30720245;28;96703;-65
2023/03/17 16:54:42;;;;;;;11.35;6.03;;;;;;;9.27;34.39;100198.19;30614024;28;96776;-60
2023/03/17 17:09:42;;;;;;;11.30;5.82;;;;;;;8.86;35.61;100189.22;30605847;28;97491;-61
2023/03/17 17:24:43;;;;;;;11.15;5.45;;;;;;;8.55;36.97;100205.66;30601149;28;96697;-62
2023/03/17 17:39:43;;;;;;;11.98;6.57;;;;;;;8.18;38.67;100212.03;30603285;28;97261;-64
2023/03/17 17:54:44;;;;;;;14.85;8.25;;;;;;;7.74;40.20;100210.16;30722876;28;97194;-62
2023/03/17 18:09:45;;;;;;;19.85;7.38;;;;;;;7.22;40.99;100205.47;30713900;28;97710;-63
2023/03/17 18:24:46;;;;;;;16.80;7.45;;;;;;;6.91;42.29;100195.16;30607244;28;97576;-63
2023/03/17 18:39:47;;;;;;;19.85;9.13;;;;;;;6.59;43.05;100191.13;30607411;28;97914;-62
2023/03/17 18:54:47;;;;;;;23.17;10.63;;;;;;;6.32;43.75;100186.59;30605751;28;97453;-65
2023/03/17 19:09:47;;;;;;;22.45;10.50;;;;;;;6.06;44.47;100195.94;30611529;28;96707;-63
2023/03/17 19:24:49;;;;;;;23.60;11.02;;;;;;;5.82;45.05;100195.50;30625885;28;96871;-62
2023/03/17 19:39:50;;;;;;;14.48;8.32;;;;;;;5.60;45.91;100192.16;30623388;28;97023;-63
2023/03/17 19:54:50;;;;;;;19.33;9.40;;;;;;;5.39;46.62;100190.47;30638726;28;96834;-63
2023/03/17 20:09:52;;;;;;;23.10;9.73;;;;;;;5.09;46.74;100192.19;30623227;28;96684;-63
2023/03/17 20:24:53;;;;;;;16.08;8.07;;;;;;;4.86;47.39;100174.91;30622843;28;96747;-63
2023/03/17 20:39:56;;;;;;;16.67;8.20;;;;;;;4.59;47.84;100168.41;30620622;28;96985;-63
2023/03/17 20:54:58;;;;;;;20.75;10.73;;;;;;;4.40;48.38;100166.50;30616845;28;97005;-63
2023/03/17 21:10:00;;;;;;;24.92;11.95;;;;;;;4.14;48.74;100160.81;30617590;28;96665;-63
2023/03/17 21:25:06;;;;;;;20.58;10.07;;;;;;;4.01;48.73;100146.03;30614711;28;97067;-64
2023/03/17 21:40:10;;;;;;;18.10;10.02;;;;;;;3.92;49.01;100130.97;30614440;28;96891;-63
2023/03/17 21:55:11;;;;;;;20.60;10.23;;;;;;;3.77;49.18;100132.25;30614669;28;96754;-63
2023/03/17 22:10:12;;;;;;;19.40;8.98;;;;;;;3.62;49.86;100118.56;30613288;28;97283;-63
2023/03/17 22:25:12;;;;;;;20.45;10.25;;;;;;;3.52;49.95;100121.13;30611884;28;96782;-62
2023/03/17 22:40:13;;;;;;;17.70;9.07;;;;;;;3.33;50.37;100114.72;30610738;28;96900;-63
2023/03/17 22:55:14;;;;;;;17.17;10.23;;;;;;;3.19;50.88;100093.97;30631489;28;97495;-63
2023/03/17 23:10:16;;;;;;;20.42;10.07;;;;;;;3.08;50.75;100097.47;30631304;28;97051;-63
2023/03/17 23:25:18;;;;;;;19.40;10.40;;;;;;;2.92;51.27;100095.22;30628365;28;97449;-63
2023/03/17 23:40:19;;;;;;;16.27;7.68;;;;;;;2.76;51.10;100094.78;30627499;28;96721;-63
2023/03/17 23:55:19;;;;;;;14.90;8.02;;;;;;;2.69;51.60;100084.75;30626584;28;96663;-63
